地図

経路データ

SID SEASON NUMBER BASIN SUBBASIN NAME ISO_TIME NATURE LAT LON WMO_WIND WMO_PRES WMO_AGENCY TRACK_TYPE DIST2LAND LANDFALL IFLAG USA_AGENCY USA_ATCF_ID USA_LAT USA_LON USA_RECORD USA_STATUS USA_WIND USA_PRES USA_SSHS USA_R34_NE USA_R34_SE USA_R34_SW USA_R34_NW USA_R50_NE USA_R50_SE USA_R50_SW USA_R50_NW USA_R64_NE USA_R64_SE USA_R64_SW USA_R64_NW USA_POCI USA_ROCI USA_RMW USA_EYE TOKYO_LAT TOKYO_LON TOKYO_GRADE TOKYO_WIND TOKYO_PRES TOKYO_R50_DIR TOKYO_R50_LONG TOKYO_R50_SHORT TOKYO_R30_DIR TOKYO_R30_LONG TOKYO_R30_SHORT TOKYO_LAND CMA_LAT CMA_LON CMA_CAT CMA_WIND CMA_PRES HKO_LAT HKO_LON HKO_CAT HKO_WIND HKO_PRES NEWDELHI_LAT NEWDELHI_LON NEWDELHI_GRADE NEWDELHI_WIND NEWDELHI_PRES NEWDELHI_CI NEWDELHI_DP NEWDELHI_POCI REUNION_LAT REUNION_LON REUNION_TYPE REUNION_WIND REUNION_PRES REUNION_TNUM REUNION_CI REUNION_RMW REUNION_R34_NE REUNION_R34_SE REUNION_R34_SW REUNION_R34_NW REUNION_R50_NE REUNION_R50_SE REUNION_R50_SW REUNION_R50_NW REUNION_R64_NE REUNION_R64_SE REUNION_R64_SW REUNION_R64_NW BOM_LAT BOM_LON BOM_TYPE BOM_WIND BOM_PRES BOM_TNUM BOM_CI BOM_RMW BOM_R34_NE BOM_R34_SE BOM_R34_SW BOM_R34_NW BOM_R50_NE BOM_R50_SE BOM_R50_SW BOM_R50_NW BOM_R64_NE BOM_R64_SE BOM_R64_SW BOM_R64_NW BOM_ROCI BOM_POCI BOM_EYE BOM_POS_METHOD BOM_PRES_METHOD NADI_LAT NADI_LON NADI_CAT NADI_WIND NADI_PRES WELLINGTON_LAT WELLINGTON_LON WELLINGTON_WIND WELLINGTON_PRES DS824_LAT DS824_LON DS824_STAGE DS824_WIND DS824_PRES TD9636_LAT TD9636_LON TD9636_STAGE TD9636_WIND TD9636_PRES TD9635_LAT TD9635_LON TD9635_WIND TD9635_PRES TD9635_ROCI NEUMANN_LAT NEUMANN_LON NEUMANN_CLASS NEUMANN_WIND NEUMANN_PRES MLC_LAT MLC_LON MLC_CLASS MLC_WIND MLC_PRES USA_GUST BOM_GUST BOM_GUST_PER REUNION_GUST REUNION_GUST_PER USA_SEAHGT USA_SEARAD_NE USA_SEARAD_SE USA_SEARAD_SW USA_SEARAD_NW STORM_SPEED STORM_DIR
1969345N11081 1969 116 NI BB NOT_NAMED 1969-12-10 18:00:00 TS 10.5000 81.3000 main 141 141 O________O____ jtwc_io IO131969 10.5000 81.3000 -1 10.5000 81.3000 TC 1 0
1969345N11081 1969 116 NI BB NOT_NAMED 1969-12-10 21:00:00 TS 10.5625 81.2975 main 148 148 P________P____ IO131969 10.5625 81.2975 -1 10.5625 81.2975 TC 2 8
1969345N11081 1969 116 NI BB NOT_NAMED 1969-12-11 00:00:00 TS 10.7000 81.3000 main 153 152 O________O____ jtwc_io IO131969 10.7000 81.3000 -1 10.7000 81.3000 TC 25 4 0
1969345N11081 1969 116 NI BB NOT_NAMED 1969-12-11 03:00:00 TS 10.9667 81.3066 main 152 152 P________PO___ IO131969 10.9625 81.3075 -1 10.9625 81.3075 TC 25 11.0000 81.3000 1 6 0
1969345N11081 1969 116 NI BB NOT_NAMED 1969-12-11 06:00:00 TS 11.3044 81.2987 main 153 153 O________OP___ jtwc_io IO131969 11.3000 81.3000 -1 11.3000 81.3000 TC 25 11.3219 81.2936 1 7 357
1969345N11081 1969 116 NI BB NOT_NAMED 1969-12-11 09:00:00 TS 11.6486 81.2636 main 156 122 P________PP___ IO131969 11.6500 81.2575 -1 11.6500 81.2575 TC 25 11.6450 81.2798 1 7 354
1969345N11081 1969 116 NI BB NOT_NAMED 1969-12-11 12:00:00 TS 11.9902 81.2170 main 122 110 O________OP___ jtwc_io IO131969 12.0000 81.2000 -1 12.0000 81.2000 TC 25 11.9706 81.2511 1 7 352
1969345N11081 1969 116 NI BB NOT_NAMED 1969-12-11 15:00:00 TS 12.3000 81.1666 main 110 97 P________PO___ IO131969 12.3000 81.1500 -1 12.3000 81.1500 TC 25 12.3000 81.2000 1 6 351
1969345N11081 1969 116 NI BB NOT_NAMED 1969-12-11 18:00:00 TS 12.6110 81.1078 main 97 86 O________OP___ jtwc_io IO131969 12.6000 81.1000 -1 12.6000 81.1000 TC 25 12.6331 81.1233 1 7 350
1969345N11081 1969 116 NI BB NOT_NAMED 1969-12-11 21:00:00 TS 12.9550 81.0451 main 82 75 P________PP___ IO131969 12.9500 81.0500 -1 12.9500 81.0500 TC 25 12.9650 81.0353 1 7 350
1969345N11081 1969 116 NI BB NOT_NAMED 1969-12-12 00:00:00 TS 13.2965 80.9849 main 75 64 O________OP___ jtwc_io IO131969 13.3000 81.0000 -1 13.3000 81.0000 TC 25 13.2894 80.9546 1 7 350
1969345N11081 1969 116 NI BB NOT_NAMED 1969-12-12 03:00:00 TS 13.6100 80.9283 main 64 64 P________PO___ IO131969 13.6150 80.9425 -1 13.6150 80.9425 TC 25 13.6000 80.9000 1 6 352
1969345N11081 1969 116 NI BB NOT_NAMED 1969-12-12 06:00:00 TS 13.8992 80.8947 main 65 65 O________OP___ jtwc_io IO131969 13.9000 80.9000 -1 13.9000 80.9000 TC 25 13.8975 80.8840 1 6 355
1969345N11081 1969 116 NI BB NOT_NAMED 1969-12-12 09:00:00 TS 14.1650 80.8842 main 78 78 P________PP___ IO131969 14.1575 80.8775 -1 14.1575 80.8775 TC 25 14.1799 80.8974 1 5 3
1969345N11081 1969 116 NI BB NOT_NAMED 1969-12-12 12:00:00 TS 14.4158 80.9124 main 78 76 O________OP___ jtwc_io IO131969 14.4000 80.9000 -1 14.4000 80.9000 TC 25 14.4475 80.9372 1 5 12
1969345N11081 1969 116 NI BB NOT_NAMED 1969-12-12 15:00:00 TS 14.6667 80.9900 main 86 86 P________PO___ IO131969 14.6500 80.9850 -1 14.6500 80.9850 TC 25 14.7000 81.0000 1 5 19
1969345N11081 1969 116 NI BB NOT_NAMED 1969-12-12 18:00:00 TS 14.9153 81.0930 main 92 70 O________OP___ jtwc_io IO131969 14.9000 81.1000 -1 14.9000 81.1000 TC 25 14.9382 81.0824 1 5 22
1969345N11081 1969 116 NI BB NOT_NAMED 1969-12-12 21:00:00 TS 15.1565 81.1942 main 64 54 P________PP___ IO131969 15.1500 81.2050 -1 15.1500 81.2050 TC 25 15.1651 81.1798 1 5 22
1969345N11081 1969 116 NI BB NOT_NAMED 1969-12-13 00:00:00 TS 15.3922 81.2937 main 54 46 O________OP___ jtwc_io IO131969 15.4000 81.3000 -1 15.4000 81.3000 TC 25 15.3844 81.2873 1 5 24
1969345N11081 1969 116 NI BB NOT_NAMED 1969-12-13 03:00:00 NR 15.6000 81.4000 main 46 __________O___ IO131969 -1 TC 15.6000 81.4000 1 5 27

IBTrACS Databaseについて

本データベースは、米国NOAAが公開する1842年以降の世界の熱帯低気圧のベストトラックデータアーカイブInternational Best Track Archive for Climate Stewardship (IBTrACS)を、ウェブで閲覧しやすい形式に変換したものです。

最終更新日:2021-12-08